Time;durP1;ratioP1;P1;durP2;ratioP2;P2;SDS_P1;SDS_P2;PMS_P1;PMS_P2;Temp;Humidity;BMP_temperature;BMP_pressure;BME280_temperature;BME280_humidity;BME280_pressure;Samples;Min_cycle;Max_cycle;Signal;HPM_P1;HPM_P2
2022/09/10 00:02:11;;;;;;;2.13;0.73;;;;;;;;;;5060152;28;20244;-63
2022/09/10 00:04:42;;;;;;;1.53;0.80;;;;;;;;;;5067660;28;20193;-65
2022/09/10 00:07:11;;;;;;;1.83;0.73;;;;;;;;;;5065340;28;20194;-63
2022/09/10 00:09:42;;;;;;;0.90;0.80;;;;;;;;;;5068010;28;20194;-64
2022/09/10 00:12:16;;;;;;;2.07;0.80;;;;;;;;;;5064248;28;20722;-63
2022/09/10 00:14:46;;;;;;;1.67;1.00;;;;;;;;;;5067888;28;20709;-64
2022/09/10 00:17:16;;;;;;;2.13;0.97;;;;;;;;;;5066882;28;20740;-64
2022/09/10 00:19:47;;;;;;;1.47;0.73;;;;;;;;;;5074492;28;20205;-63
2022/09/10 00:22:21;;;;;;;1.30;0.80;;;;;;;;;;5063904;28;20652;-63
2022/09/10 00:24:59;;;;;;;2.10;0.83;;;;;;;;;;5067031;28;20633;-64
2022/09/10 00:27:36;;;;;;;3.10;1.00;;;;;;;;;;5060035;28;20217;-63
2022/09/10 00:30:07;;;;;;;1.20;0.80;;;;;;;;;;5061232;28;20201;-63
2022/09/10 00:32:37;;;;;;;1.37;0.70;;;;;;;;;;5066714;28;20212;-63
2022/09/10 00:35:06;;;;;;;1.80;0.90;;;;;;;;;;5055688;28;20209;-64
2022/09/10 00:37:36;;;;;;;1.70;0.90;;;;;;;;;;5069376;28;20201;-63
2022/09/10 00:40:10;;;;;;;1.30;0.70;;;;;;;;;;5066377;28;20217;-63
2022/09/10 00:42:46;;;;;;;1.30;0.70;;;;;;;;;;5066597;28;20230;-64
2022/09/10 00:45:30;;;;;;;1.20;0.80;;;;;;;;;;5051205;28;20213;-63
2022/09/10 00:48:06;;;;;;;4.53;1.00;;;;;;;;;;5065029;28;20245;-64
2022/09/10 00:50:50;;;;;;;2.23;0.80;;;;;;;;;;5058068;28;20228;-64
2022/09/10 00:53:29;;;;;;;2.40;0.97;;;;;;;;;;5047876;28;20746;-64
2022/09/10 00:56:04;;;;;;;1.80;0.70;;;;;;;;;;5032083;28;20245;-64
2022/09/10 00:58:36;;;;;;;2.23;0.97;;;;;;;;;;5044472;28;20189;-64
2022/09/10 01:01:12;;;;;;;1.60;0.70;;;;;;;;;;5039055;28;20224;-64
2022/09/10 01:03:53;;;;;;;1.37;0.90;;;;;;;;;;5041502;28;20210;-63
2022/09/10 01:06:24;;;;;;;1.57;0.93;;;;;;;;;;5078308;28;20221;-63
2022/09/10 01:08:53;;;;;;;1.50;0.70;;;;;;;;;;5039191;28;20202;-64
2022/09/10 01:11:42;;;;;;;2.27;1.00;;;;;;;;;;5046135;28;20279;-63
2022/09/10 01:14:31;;;;;;;0.70;0.70;;;;;;;;;;5036479;28;20967;-63
2022/09/10 01:17:19;;;;;;;1.63;0.80;;;;;;;;;;5045753;28;20202;-64
2022/09/10 01:19:54;;;;;;;1.37;0.80;;;;;;;;;;5046489;28;20191;-63
2022/09/10 01:22:49;;;;;;;1.63;0.80;;;;;;;;;;5045574;28;20194;-64
2022/09/10 01:25:38;;;;;;;1.00;0.70;;;;;;;;;;5076251;28;20818;-64
2022/09/10 01:28:10;;;;;;;1.97;0.93;;;;;;;;;;5069805;28;20291;-63
2022/09/10 01:30:45;;;;;;;1.07;0.83;;;;;;;;;;5045883;28;20197;-63
2022/09/10 01:33:24;;;;;;;1.57;0.70;;;;;;;;;;5045546;28;20530;-64
2022/09/10 01:35:55;;;;;;;1.53;0.83;;;;;;;;;;5047091;28;20244;-63
2022/09/10 01:38:30;;;;;;;1.00;0.63;;;;;;;;;;5031395;28;20218;-64
2022/09/10 01:41:07;;;;;;;1.03;0.63;;;;;;;;;;5040965;28;20194;-63
2022/09/10 01:43:40;;;;;;;2.43;1.10;;;;;;;;;;5044334;28;20240;-64
2022/09/10 01:46:29;;;;;;;1.57;0.90;;;;;;;;;;5041663;28;20301;-62
2022/09/10 01:49:05;;;;;;;1.77;1.10;;;;;;;;;;5045253;28;20195;-63
2022/09/10 01:51:40;;;;;;;1.63;1.00;;;;;;;;;;5042944;28;20205;-63
2022/09/10 01:54:32;;;;;;;2.13;0.90;;;;;;;;;;5042938;28;20308;-62
2022/09/10 01:57:34;;;;;;;1.43;0.90;;;;;;;;;;5027228;28;20245;-64
2022/09/10 02:00:09;;;;;;;1.23;0.80;;;;;;;;;;5043600;28;20194;-64
2022/09/10 02:02:50;;;;;;;2.20;1.03;;;;;;;;;;5050267;28;20206;-64
2022/09/10 02:05:42;;;;;;;1.47;0.80;;;;;;;;;;5051859;28;20202;-64
2022/09/10 02:08:29;;;;;;;2.30;1.27;;;;;;;;;;5045705;28;20198;-64
2022/09/10 02:11:08;;;;;;;3.50;1.10;;;;;;;;;;5035889;28;20217;-64
2022/09/10 02:13:48;;;;;;;2.20;1.10;;;;;;;;;;5047824;28;20186;-64
2022/09/10 02:16:29;;;;;;;2.13;0.93;;;;;;;;;;5039542;28;20230;-64
2022/09/10 02:19:04;;;;;;;2.27;0.90;;;;;;;;;;5044333;28;20225;-64
2022/09/10 02:21:34;;;;;;;2.00;1.00;;;;;;;;;;5044669;28;20199;-64
2022/09/10 02:24:06;;;;;;;2.10;1.03;;;;;;;;;;5058729;28;20268;-64
2022/09/10 02:26:38;;;;;;;1.47;0.90;;;;;;;;;;5041569;28;20238;-63
2022/09/10 02:29:12;;;;;;;2.13;0.90;;;;;;;;;;5050260;28;20204;-64
2022/09/10 02:31:42;;;;;;;2.80;1.30;;;;;;;;;;5048510;28;20218;-64
2022/09/10 02:34:15;;;;;;;1.47;0.90;;;;;;;;;;5053069;28;20336;-63
2022/09/10 02:36:51;;;;;;;2.60;1.63;;;;;;;;;;5043991;28;20248;-64
2022/09/10 02:39:23;;;;;;;2.30;1.40;;;;;;;;;;5045853;28;20209;-64
2022/09/10 02:41:54;;;;;;;1.77;1.10;;;;;;;;;;5044912;28;20292;-64
2022/09/10 02:44:27;;;;;;;1.70;1.10;;;;;;;;;;5050640;28;20218;-64
2022/09/10 02:47:01;;;;;;;2.00;1.00;;;;;;;;;;5045749;28;20209;-63
2022/09/10 02:49:33;;;;;;;1.83;0.70;;;;;;;;;;5058294;28;20699;-64
2022/09/10 02:52:09;;;;;;;2.47;1.10;;;;;;;;;;5045647;28;20239;-63
2022/09/10 02:54:42;;;;;;;1.40;0.70;;;;;;;;;;5042861;28;20222;-64
2022/09/10 02:57:21;;;;;;;2.43;1.20;;;;;;;;;;5034064;28;20204;-63
2022/09/10 02:59:50;;;;;;;1.43;0.80;;;;;;;;;;5041090;28;20199;-63
2022/09/10 03:02:22;;;;;;;2.20;1.10;;;;;;;;;;5029780;28;20226;-63
2022/09/10 03:04:49;;;;;;;1.60;0.93;;;;;;;;;;5051213;28;20202;-63
2022/09/10 03:07:19;;;;;;;1.10;0.80;;;;;;;;;;5047788;28;20218;-63
2022/09/10 03:09:50;;;;;;;0.70;0.70;;;;;;;;;;5053669;28;20197;-63
2022/09/10 03:12:20;;;;;;;2.37;1.00;;;;;;;;;;5046418;28;20667;-64
2022/09/10 03:14:49;;;;;;;1.53;0.87;;;;;;;;;;5041452;28;20222;-63
2022/09/10 03:17:27;;;;;;;2.47;1.00;;;;;;;;;;5048548;28;20268;-63
2022/09/10 03:19:58;;;;;;;1.67;1.07;;;;;;;;;;5048026;28;20200;-64
2022/09/10 03:22:30;;;;;;;3.17;0.80;;;;;;;;;;5046855;28;20620;-63
2022/09/10 03:24:59;;;;;;;3.70;1.10;;;;;;;;;;5048963;28;20248;-63
2022/09/10 03:27:30;;;;;;;1.63;1.00;;;;;;;;;;5043787;28;20230;-63
2022/09/10 03:30:05;;;;;;;3.13;1.13;;;;;;;;;;5028020;28;20206;-63
2022/09/10 03:32:33;;;;;;;1.60;1.20;;;;;;;;;;5048356;28;20203;-63
2022/09/10 03:35:04;;;;;;;2.63;1.03;;;;;;;;;;5048397;28;20224;-64
2022/09/10 03:37:37;;;;;;;3.10;1.10;;;;;;;;;;5047517;28;20198;-63
2022/09/10 03:40:08;;;;;;;1.87;1.00;;;;;;;;;;5041427;28;20202;-63
2022/09/10 03:42:40;;;;;;;2.63;1.40;;;;;;;;;;5047644;28;20199;-63
2022/09/10 03:45:22;;;;;;;2.93;0.93;;;;;;;;;;5053147;28;20196;-63
2022/09/10 03:47:55;;;;;;;1.47;1.10;;;;;;;;;;5047420;28;20297;-63
2022/09/10 03:50:25;;;;;;;1.53;1.00;;;;;;;;;;5047429;28;20225;-64
2022/09/10 03:52:56;;;;;;;1.07;0.90;;;;;;;;;;5029492;28;20238;-63
2022/09/10 03:55:29;;;;;;;2.33;1.00;;;;;;;;;;5065536;28;20206;-63
2022/09/10 03:57:59;;;;;;;3.40;1.30;;;;;;;;;;5046999;28;20597;-63
2022/09/10 04:00:29;;;;;;;1.60;0.90;;;;;;;;;;5042767;28;20218;-63
2022/09/10 04:03:00;;;;;;;2.37;0.97;;;;;;;;;;5057269;28;20225;-63
2022/09/10 04:05:32;;;;;;;2.37;1.20;;;;;;;;;;5041886;28;20218;-63
2022/09/10 04:08:02;;;;;;;2.53;0.90;;;;;;;;;;5061940;28;20236;-63
2022/09/10 04:10:30;;;;;;;2.37;1.20;;;;;;;;;;5044964;28;20210;-63
2022/09/10 04:13:03;;;;;;;1.73;1.10;;;;;;;;;;5047328;28;20220;-63
2022/09/10 04:15:34;;;;;;;1.80;1.10;;;;;;;;;;5055679;28;20198;-63
2022/09/10 04:18:04;;;;;;;1.67;1.00;;;;;;;;;;5050198;28;20225;-63
2022/09/10 04:20:36;;;;;;;1.90;1.00;;;;;;;;;;5039897;28;20195;-64
2022/09/10 04:23:21;;;;;;;1.60;1.10;;;;;;;;;;5062428;28;20233;-63
2022/09/10 04:25:51;;;;;;;2.13;1.13;;;;;;;;;;5059119;28;20203;-63
2022/09/10 04:28:24;;;;;;;2.70;1.10;;;;;;;;;;5018546;28;20293;-63
2022/09/10 04:30:55;;;;;;;2.10;1.20;;;;;;;;;;5052515;28;20202;-63
2022/09/10 04:33:26;;;;;;;2.80;1.13;;;;;;;;;;5050587;28;20190;-63
2022/09/10 04:35:54;;;;;;;2.80;1.00;;;;;;;;;;5019529;28;20199;-63
2022/09/10 04:38:25;;;;;;;3.03;1.00;;;;;;;;;;5041907;28;20256;-63
2022/09/10 04:40:59;;;;;;;1.77;1.17;;;;;;;;;;5049317;28;20190;-63
2022/09/10 04:43:29;;;;;;;1.97;1.10;;;;;;;;;;5058936;28;20206;-63
2022/09/10 04:46:00;;;;;;;2.20;1.10;;;;;;;;;;5043449;28;20265;-63
2022/09/10 04:48:30;;;;;;;1.67;1.13;;;;;;;;;;5045680;28;20211;-63
2022/09/10 04:51:00;;;;;;;1.67;1.10;;;;;;;;;;5050882;28;20214;-63
2022/09/10 04:53:45;;;;;;;1.97;1.30;;;;;;;;;;5046112;28;20226;-63
2022/09/10 04:56:16;;;;;;;1.90;1.13;;;;;;;;;;5047903;28;20692;-62
2022/09/10 04:58:48;;;;;;;3.50;1.23;;;;;;;;;;5045876;28;20194;-62
2022/09/10 05:01:23;;;;;;;2.43;0.90;;;;;;;;;;5047468;28;20201;-63
2022/09/10 05:03:54;;;;;;;1.37;1.03;;;;;;;;;;5042760;28;20221;-63
2022/09/10 05:06:25;;;;;;;3.37;1.00;;;;;;;;;;5045112;28;20318;-64
2022/09/10 05:08:57;;;;;;;1.80;1.30;;;;;;;;;;5045913;28;20203;-64
2022/09/10 05:11:27;;;;;;;1.53;0.80;;;;;;;;;;5033751;28;20256;-63
2022/09/10 05:13:59;;;;;;;2.23;1.30;;;;;;;;;;5046097;28;20186;-63
2022/09/10 05:16:28;;;;;;;1.93;1.10;;;;;;;;;;5050237;28;20662;-63
2022/09/10 05:19:03;;;;;;;1.90;1.40;;;;;;;;;;5048432;28;20191;-63
2022/09/10 05:21:34;;;;;;;3.30;1.30;;;;;;;;;;5052476;28;20201;-64
2022/09/10 05:24:04;;;;;;;2.53;1.37;;;;;;;;;;5059187;28;20210;-64
2022/09/10 05:26:35;;;;;;;2.33;1.27;;;;;;;;;;5027002;28;20246;-63
2022/09/10 05:29:05;;;;;;;1.60;1.10;;;;;;;;;;5046682;28;20247;-63
2022/09/10 05:31:37;;;;;;;2.30;1.17;;;;;;;;;;5046374;28;20198;-62
2022/09/10 05:34:10;;;;;;;4.00;1.53;;;;;;;;;;5044038;28;20206;-62
2022/09/10 05:36:39;;;;;;;2.40;1.37;;;;;;;;;;5034296;28;20561;-64
2022/09/10 05:39:09;;;;;;;1.53;1.33;;;;;;;;;;5039619;28;20253;-64
2022/09/10 05:41:41;;;;;;;1.63;1.00;;;;;;;;;;5038958;28;20201;-64
2022/09/10 05:44:09;;;;;;;1.80;1.20;;;;;;;;;;5043617;28;20248;-64
2022/09/10 05:46:39;;;;;;;2.57;1.53;;;;;;;;;;5052558;28;20221;-63
2022/09/10 05:49:20;;;;;;;1.13;1.00;;;;;;;;;;5042769;28;20219;-64
2022/09/10 05:51:50;;;;;;;2.63;1.47;;;;;;;;;;5032442;28;20643;-63
2022/09/10 05:54:21;;;;;;;3.53;1.20;;;;;;;;;;5057378;28;20218;-64
2022/09/10 05:56:53;;;;;;;2.27;1.20;;;;;;;;;;5066385;28;20631;-64
2022/09/10 05:59:24;;;;;;;2.97;1.40;;;;;;;;;;5066314;28;20811;-64
2022/09/10 06:01:56;;;;;;;2.47;1.67;;;;;;;;;;5067310;28;20210;-64
2022/09/10 06:04:31;;;;;;;3.47;1.20;;;;;;;;;;5062267;28;20205;-64
2022/09/10 06:07:01;;;;;;;2.43;1.50;;;;;;;;;;5069788;28;20259;-64
2022/09/10 06:09:32;;;;;;;1.57;1.07;;;;;;;;;;5066315;28;20190;-64
2022/09/10 06:12:09;;;;;;;2.33;1.53;;;;;;;;;;5068283;28;20285;-63
2022/09/10 06:14:49;;;;;;;2.60;1.57;;;;;;;;;;5068177;28;20217;-64
2022/09/10 06:17:22;;;;;;;2.03;1.30;;;;;;;;;;5069923;28;20216;-64
2022/09/10 06:19:53;;;;;;;2.63;1.47;;;;;;;;;;5075705;28;20197;-64
2022/09/10 06:22:25;;;;;;;3.73;1.97;;;;;;;;;;5067357;28;20639;-64
2022/09/10 06:24:56;;;;;;;3.40;1.50;;;;;;;;;;5069904;28;20206;-64
2022/09/10 06:27:26;;;;;;;3.00;1.63;;;;;;;;;;5065914;28;20225;-64
2022/09/10 06:29:56;;;;;;;3.43;1.87;;;;;;;;;;5066547;28;20205;-63
2022/09/10 06:32:24;;;;;;;2.57;1.60;;;;;;;;;;5067573;28;20186;-64
2022/09/10 06:34:54;;;;;;;2.47;1.70;;;;;;;;;;5035518;28;20271;-64
2022/09/10 06:37:26;;;;;;;2.70;1.67;;;;;;;;;;5068942;28;20198;-64
2022/09/10 06:39:57;;;;;;;2.43;1.77;;;;;;;;;;5066139;28;20213;-64
2022/09/10 06:42:31;;;;;;;3.20;1.40;;;;;;;;;;5071709;28;20197;-64
2022/09/10 06:45:00;;;;;;;2.70;1.57;;;;;;;;;;5087280;28;20213;-64
2022/09/10 06:47:32;;;;;;;2.33;1.50;;;;;;;;;;5074390;28;20241;-64
2022/09/10 06:50:25;;;;;;;2.50;1.70;;;;;;;;;;5062343;28;20206;-63
2022/09/10 06:52:57;;;;;;;2.97;1.70;;;;;;;;;;5068064;28;20197;-63
2022/09/10 06:55:29;;;;;;;1.97;1.50;;;;;;;;;;5066071;28;20197;-62
2022/09/10 06:58:03;;;;;;;2.20;1.50;;;;;;;;;;5069584;28;20185;-62
2022/09/10 07:00:36;;;;;;;1.80;1.40;;;;;;;;;;5075256;28;20201;-63
2022/09/10 07:03:21;;;;;;;1.70;1.40;;;;;;;;;;5065189;28;20700;-63
2022/09/10 07:05:54;;;;;;;2.03;1.27;;;;;;;;;;5084104;28;20661;-63
2022/09/10 07:08:35;;;;;;;2.10;1.57;;;;;;;;;;5055896;28;20202;-63
2022/09/10 07:11:10;;;;;;;2.90;1.80;;;;;;;;;;5069165;28;20323;-62
2022/09/10 07:13:41;;;;;;;3.13;1.80;;;;;;;;;;5066457;28;20196;-62
2022/09/10 07:16:14;;;;;;;3.80;1.93;;;;;;;;;;5060493;28;20225;-63
2022/09/10 07:18:47;;;;;;;2.53;1.50;;;;;;;;;;5070170;28;20714;-64
2022/09/10 07:21:18;;;;;;;1.57;1.43;;;;;;;;;;5083579;28;20225;-62
2022/09/10 07:23:55;;;;;;;2.43;1.53;;;;;;;;;;5065170;28;20213;-62
2022/09/10 07:26:25;;;;;;;1.83;1.37;;;;;;;;;;5042942;28;20237;-63
2022/09/10 07:28:54;;;;;;;2.77;1.67;;;;;;;;;;5068096;28;20217;-63
2022/09/10 07:31:28;;;;;;;2.93;1.67;;;;;;;;;;5066716;28;20194;-62
2022/09/10 07:34:05;;;;;;;2.90;1.23;;;;;;;;;;5047595;28;20209;-62
2022/09/10 07:36:35;;;;;;;2.33;1.33;;;;;;;;;;5068133;28;20740;-61
2022/09/10 07:39:10;;;;;;;2.17;1.40;;;;;;;;;;5053878;28;20217;-61
2022/09/10 07:41:45;;;;;;;1.63;1.27;;;;;;;;;;5061567;28;20200;-62
2022/09/10 07:44:16;;;;;;;1.50;1.40;;;;;;;;;;5061878;28;20189;-62
2022/09/10 07:46:45;;;;;;;3.70;1.47;;;;;;;;;;5067038;28;20193;-62
2022/09/10 07:49:15;;;;;;;2.67;1.23;;;;;;;;;;5067192;28;20186;-63
2022/09/10 07:51:46;;;;;;;1.70;1.20;;;;;;;;;;5063450;28;20205;-64
2022/09/10 07:54:15;;;;;;;2.00;1.30;;;;;;;;;;5049389;28;20230;-63
2022/09/10 07:56:46;;;;;;;2.17;1.40;;;;;;;;;;5047022;28;20275;-62
2022/09/10 07:59:25;;;;;;;1.73;1.40;;;;;;;;;;5044861;28;20202;-62
2022/09/10 08:01:58;;;;;;;2.43;1.60;;;;;;;;;;5046648;28;20222;-62
2022/09/10 08:04:36;;;;;;;2.53;1.30;;;;;;;;;;5045063;28;20202;-63
2022/09/10 08:07:07;;;;;;;1.63;1.40;;;;;;;;;;5029580;28;20202;-63
2022/09/10 08:09:47;;;;;;;1.80;1.33;;;;;;;;;;5047288;28;20202;-63
2022/09/10 08:12:20;;;;;;;1.63;1.40;;;;;;;;;;5041822;28;20670;-63
2022/09/10 08:14:57;;;;;;;1.43;1.27;;;;;;;;;;5040491;28;20776;-63
2022/09/10 08:17:38;;;;;;;1.60;1.30;;;;;;;;;;5045734;28;20210;-63
2022/09/10 08:20:10;;;;;;;1.30;1.13;;;;;;;;;;5035314;28;20207;-60
2022/09/10 08:22:42;;;;;;;1.60;1.30;;;;;;;;;;5046782;28;20278;-60
2022/09/10 08:25:11;;;;;;;1.63;1.20;;;;;;;;;;5044685;28;20295;-60
2022/09/10 08:27:44;;;;;;;3.93;1.30;;;;;;;;;;5037017;28;20270;-61
2022/09/10 08:30:15;;;;;;;2.30;1.50;;;;;;;;;;5033645;28;20792;-61
2022/09/10 08:32:46;;;;;;;1.77;1.23;;;;;;;;;;5041291;28;20203;-61
2022/09/10 08:35:23;;;;;;;5.13;1.50;;;;;;;;;;5043473;28;20252;-60
2022/09/10 08:37:54;;;;;;;8.63;1.60;;;;;;;;;;5060016;28;20647;-61
2022/09/10 08:40:28;;;;;;;4.00;1.50;;;;;;;;;;5040260;28;20222;-61
2022/09/10 08:43:02;;;;;;;7.77;1.73;;;;;;;;;;5046788;28;20909;-61
2022/09/10 08:45:35;;;;;;;9.03;2.13;;;;;;;;;;5042952;28;20273;-61
2022/09/10 08:48:16;;;;;;;17.40;2.53;;;;;;;;;;5039956;28;20207;-61
2022/09/10 08:50:56;;;;;;;11.60;2.67;;;;;;;;;;5043768;28;20259;-62
2022/09/10 08:54:10;;;;;;;11.13;2.60;;;;;;;;;;5041836;28;20258;-62
2022/09/10 08:56:42;;;;;;;13.13;2.27;;;;;;;;;;5033352;28;20336;-60
2022/09/10 08:59:24;;;;;;;5.00;1.87;;;;;;;;;;5050422;28;20674;-60
2022/09/10 09:02:06;;;;;;;7.10;2.63;;;;;;;;;;5046638;28;20198;-61
2022/09/10 09:05:01;;;;;;;22.20;6.47;;;;;;;;;;5028151;28;20202;-61
2022/09/10 09:07:39;;;;;;;27.50;7.73;;;;;;;;;;5061959;28;20213;-62
2022/09/10 09:10:17;;;;;;;23.87;7.90;;;;;;;;;;5052116;28;20213;-61
2022/09/10 09:13:17;;;;;;;22.80;8.27;;;;;;;;;;5048051;28;20244;-62
2022/09/10 09:15:58;;;;;;;19.77;6.97;;;;;;;;;;5044618;28;20206;-61
2022/09/10 09:18:56;;;;;;;19.63;6.60;;;;;;;;;;5052737;28;20199;-61
2022/09/10 09:21:44;;;;;;;23.73;7.23;;;;;;;;;;5036806;28;20210;-61
2022/09/10 09:24:18;;;;;;;20.17;7.20;;;;;;;;;;5046382;28;20214;-61
2022/09/10 09:27:00;;;;;;;16.90;6.57;;;;;;;;;;5063938;28;20210;-61
2022/09/10 09:29:49;;;;;;;15.00;6.07;;;;;;;;;;5057188;28;20191;-62
2022/09/10 09:32:21;;;;;;;19.17;6.13;;;;;;;;;;5044574;28;20193;-60
2022/09/10 09:34:57;;;;;;;12.47;6.27;;;;;;;;;;5047876;28;20205;-61
2022/09/10 09:37:32;;;;;;;14.00;6.17;;;;;;;;;;5054593;28;20652;-62
2022/09/10 09:40:32;;;;;;;17.13;5.83;;;;;;;;;;5038188;28;20237;-62
2022/09/10 09:43:15;;;;;;;15.83;6.70;;;;;;;;;;5047317;28;20199;-62
2022/09/10 09:45:44;;;;;;;12.07;5.70;;;;;;;;;;5041103;28;20286;-61
2022/09/10 09:48:15;;;;;;;14.93;6.30;;;;;;;;;;5050144;28;20210;-62
2022/09/10 09:50:49;;;;;;;11.43;5.97;;;;;;;;;;5030422;28;20217;-62
2022/09/10 09:53:24;;;;;;;11.80;5.33;;;;;;;;;;5036247;28;20222;-62
2022/09/10 09:56:17;;;;;;;13.60;5.77;;;;;;;;;;5045507;28;20213;-61
2022/09/10 09:58:53;;;;;;;9.97;5.10;;;;;;;;;;5044875;28;20275;-62
2022/09/10 10:01:38;;;;;;;8.17;4.50;;;;;;;;;;5038701;28;20240;-62
2022/09/10 10:04:29;;;;;;;10.13;5.10;;;;;;;;;;5032731;28;20214;-62
2022/09/10 10:06:59;;;;;;;10.67;4.80;;;;;;;;;;5041686;28;20194;-63
2022/09/10 10:09:32;;;;;;;11.73;4.87;;;;;;;;;;5024718;28;20222;-63
2022/09/10 10:12:13;;;;;;;9.70;4.47;;;;;;;;;;5041884;28;20209;-62
2022/09/10 10:14:50;;;;;;;7.90;4.20;;;;;;;;;;5037785;28;20245;-62
2022/09/10 10:17:29;;;;;;;8.40;4.20;;;;;;;;;;5041101;28;20198;-62
2022/09/10 10:20:04;;;;;;;6.10;3.87;;;;;;;;;;5043435;28;20190;-62
2022/09/10 10:22:34;;;;;;;9.07;3.90;;;;;;;;;;5043688;28;20679;-63
2022/09/10 10:25:29;;;;;;;6.67;3.90;;;;;;;;;;5026668;28;20199;-63
2022/09/10 10:27:58;;;;;;;8.63;3.90;;;;;;;;;;5033853;28;20231;-62
2022/09/10 10:30:43;;;;;;;6.23;3.83;;;;;;;;;;5026372;28;20205;-63
2022/09/10 10:33:18;;;;;;;9.63;3.47;;;;;;;;;;5059320;28;20258;-63
2022/09/10 10:36:09;;;;;;;6.43;3.47;;;;;;;;;;5043775;28;20209;-63
2022/09/10 10:38:48;;;;;;;6.70;3.20;;;;;;;;;;5029016;28;20539;-63
2022/09/10 10:41:34;;;;;;;6.50;3.20;;;;;;;;;;5037157;28;20259;-63
2022/09/10 10:44:08;;;;;;;4.90;2.83;;;;;;;;;;5031295;28;20653;-63
2022/09/10 10:46:59;;;;;;;5.43;3.07;;;;;;;;;;5033093;28;20197;-63
2022/09/10 10:49:49;;;;;;;5.90;3.20;;;;;;;;;;5044668;28;20218;-63
2022/09/10 10:52:37;;;;;;;5.73;3.23;;;;;;;;;;5036753;28;20210;-62
2022/09/10 10:55:14;;;;;;;4.57;2.87;;;;;;;;;;5035061;28;20230;-61
2022/09/10 10:57:58;;;;;;;4.67;2.53;;;;;;;;;;5041231;28;20191;-62
2022/09/10 11:00:46;;;;;;;5.00;2.70;;;;;;;;;;5039373;28;20194;-61
2022/09/10 11:03:28;;;;;;;6.37;2.60;;;;;;;;;;5041588;28;20203;-61
2022/09/10 11:06:13;;;;;;;6.27;2.80;;;;;;;;;;5045306;28;20232;-61
2022/09/10 11:09:02;;;;;;;7.13;3.07;;;;;;;;;;5068458;28;20274;-62
2022/09/10 11:11:52;;;;;;;8.60;3.07;;;;;;;;;;5044738;28;20190;-63
2022/09/10 11:14:36;;;;;;;5.03;2.73;;;;;;;;;;5063770;28;20882;-63
2022/09/10 11:17:16;;;;;;;3.47;2.50;;;;;;;;;;5038247;28;20195;-62
2022/09/10 11:20:07;;;;;;;6.17;3.00;;;;;;;;;;5074293;28;20835;-63
2022/09/10 11:23:26;;;;;;;5.20;2.67;;;;;;;;;;5040537;28;20702;-63
2022/09/10 11:26:09;;;;;;;3.80;2.57;;;;;;;;;;5046739;28;20199;-62
2022/09/10 11:28:42;;;;;;;3.63;2.77;;;;;;;;;;5046223;28;20214;-62
2022/09/10 11:31:16;;;;;;;3.23;2.60;;;;;;;;;;5039527;28;20283;-62
2022/09/10 11:33:56;;;;;;;3.27;2.10;;;;;;;;;;5036032;28;20198;-62
2022/09/10 11:36:34;;;;;;;3.20;2.20;;;;;;;;;;5073434;28;20198;-63
2022/09/10 11:39:37;;;;;;;3.03;2.10;;;;;;;;;;5033308;28;20644;-63
2022/09/10 11:42:34;;;;;;;4.00;2.20;;;;;;;;;;5031367;28;20211;-62
2022/09/10 11:45:22;;;;;;;4.27;2.00;;;;;;;;;;5035385;28;20268;-62
2022/09/10 11:48:12;;;;;;;3.20;2.10;;;;;;;;;;5029834;28;20215;-62
2022/09/10 11:51:04;;;;;;;2.80;2.10;;;;;;;;;;5040660;28;20267;-63
2022/09/10 11:53:36;;;;;;;4.10;2.10;;;;;;;;;;5034836;28;20202;-63
2022/09/10 11:56:12;;;;;;;2.97;2.03;;;;;;;;;;5025338;28;20205;-62
2022/09/10 11:59:01;;;;;;;3.00;2.40;;;;;;;;;;4999359;28;20199;-62
2022/09/10 12:02:01;;;;;;;2.90;2.03;;;;;;;;;;5020998;28;20257;-62
2022/09/10 12:05:01;;;;;;;2.27;1.90;;;;;;;;;;4982666;28;20222;-63
2022/09/10 12:07:48;;;;;;;3.50;1.80;;;;;;;;;;4989294;28;20261;-63
2022/09/10 12:10:32;;;;;;;2.00;1.80;;;;;;;;;;5021574;28;20199;-62
2022/09/10 12:13:00;;;;;;;2.50;1.93;;;;;;;;;;5025186;28;20306;-63
2022/09/10 12:15:34;;;;;;;3.17;2.10;;;;;;;;;;5020212;28;20208;-61
2022/09/10 12:18:20;;;;;;;3.17;1.80;;;;;;;;;;5016756;28;20215;-61
2022/09/10 12:21:01;;;;;;;3.10;2.17;;;;;;;;;;5006986;28;20206;-64
2022/09/10 12:23:43;;;;;;;2.63;1.73;;;;;;;;;;5023879;28;20212;-63
2022/09/10 12:26:18;;;;;;;2.70;1.70;;;;;;;;;;5019793;28;20198;-64
2022/09/10 12:28:50;;;;;;;3.40;1.87;;;;;;;;;;5007577;28;20247;-64
2022/09/10 12:31:26;;;;;;;2.00;1.80;;;;;;;;;;5021632;28;20540;-64
2022/09/10 12:34:30;;;;;;;3.53;2.37;;;;;;;;;;5024769;28;20199;-64
2022/09/10 12:37:00;;;;;;;4.10;2.17;;;;;;;;;;5010771;28;20211;-63
2022/09/10 12:39:30;;;;;;;3.37;2.43;;;;;;;;;;5004079;28;20382;-62
2022/09/10 12:42:24;;;;;;;2.93;2.37;;;;;;;;;;5008074;28;20229;-64
2022/09/10 12:44:55;;;;;;;4.37;2.17;;;;;;;;;;5014045;28;20298;-64
2022/09/10 12:47:46;;;;;;;3.63;2.00;;;;;;;;;;5010708;28;20198;-63
2022/09/10 12:50:35;;;;;;;3.87;2.50;;;;;;;;;;5019088;28;20199;-63
2022/09/10 12:53:34;;;;;;;4.40;2.40;;;;;;;;;;5025301;28;20288;-63
2022/09/10 12:56:22;;;;;;;4.37;2.33;;;;;;;;;;5024217;28;20254;-64
2022/09/10 12:59:01;;;;;;;6.77;2.57;;;;;;;;;;5042311;28;20207;-64
2022/09/10 13:01:40;;;;;;;79.43;19.80;;;;;;;;;;5044999;28;20259;-64
2022/09/10 13:04:30;;;;;;;79.83;19.00;;;;;;;;;;5035657;28;20218;-63
2022/09/10 13:07:04;;;;;;;70.90;17.17;;;;;;;;;;5037050;28;20210;-63
2022/09/10 13:09:45;;;;;;;50.97;13.27;;;;;;;;;;5041943;28;20212;-64
2022/09/10 13:12:23;;;;;;;54.00;12.23;;;;;;;;;;5059199;28;20183;-63
2022/09/10 13:14:56;;;;;;;47.50;11.43;;;;;;;;;;5034125;28;20207;-63
2022/09/10 13:17:35;;;;;;;47.37;11.50;;;;;;;;;;5058177;28;20229;-64
2022/09/10 13:20:14;;;;;;;33.93;10.27;;;;;;;;;;5048294;28;20195;-62
2022/09/10 13:23:02;;;;;;;33.47;9.87;;;;;;;;;;5045219;28;20200;-61
2022/09/10 13:25:43;;;;;;;28.10;9.07;;;;;;;;;;5047350;28;20198;-63
2022/09/10 13:28:32;;;;;;;24.17;7.83;;;;;;;;;;5043311;28;20202;-63
2022/09/10 13:31:11;;;;;;;19.63;6.87;;;;;;;;;;5044000;28;20195;-63
2022/09/10 13:34:16;;;;;;;21.20;6.40;;;;;;;;;;5048562;28;20299;-62
2022/09/10 13:36:55;;;;;;;18.50;5.77;;;;;;;;;;5026886;28;20222;-63
2022/09/10 13:39:56;;;;;;;17.40;6.20;;;;;;;;;;5021619;28;20297;-63
2022/09/10 13:42:49;;;;;;;14.77;5.37;;;;;;;;;;5042260;28;20198;-63
2022/09/10 13:45:26;;;;;;;10.93;4.40;;;;;;;;;;5048527;28;20544;-64
2022/09/10 13:48:06;;;;;;;18.60;5.30;;;;;;;;;;5042979;28;20198;-63
2022/09/10 13:50:56;;;;;;;10.73;4.30;;;;;;;;;;5043583;28;20213;-64
2022/09/10 13:53:29;;;;;;;10.73;4.33;;;;;;;;;;5049518;28;20186;-64
2022/09/10 13:59:30;;;;;;;8.03;4.10;;;;;;;;;;5070815;28;20266;-63
2022/09/10 14:01:58;;;;;;;8.93;4.40;;;;;;;;;;5071056;28;20421;-63
2022/09/10 14:04:30;;;;;;;7.77;3.50;;;;;;;;;;5057944;28;20195;-62
2022/09/10 14:07:14;;;;;;;8.17;4.00;;;;;;;;;;5060921;28;20222;-62
2022/09/10 14:09:58;;;;;;;4.40;3.50;;;;;;;;;;5049391;28;20224;-62
2022/09/10 14:12:36;;;;;;;7.73;3.00;;;;;;;;;;5074386;28;20186;-62
2022/09/10 14:15:06;;;;;;;6.97;3.60;;;;;;;;;;5025125;28;20255;-62
2022/09/10 14:17:44;;;;;;;4.20;3.23;;;;;;;;;;5055918;28;20187;-62
2022/09/10 14:20:35;;;;;;;6.67;3.40;;;;;;;;;;5042982;28;20218;-62
2022/09/10 14:23:12;;;;;;;6.77;3.03;;;;;;;;;;5045131;28;21872;-63
2022/09/10 14:26:07;;;;;;;6.40;3.47;;;;;;;;;;5060681;28;20658;-62
2022/09/10 14:28:50;;;;;;;3.37;2.80;;;;;;;;;;5045448;28;20252;-63
2022/09/10 14:31:25;;;;;;;6.67;3.00;;;;;;;;;;5049334;28;20252;-62
2022/09/10 14:34:19;;;;;;;5.30;3.00;;;;;;;;;;5049050;28;20195;-62
2022/09/10 14:36:49;;;;;;;5.93;3.33;;;;;;;;;;5044867;28;20191;-62
2022/09/10 14:39:33;;;;;;;4.77;3.20;;;;;;;;;;5042489;28;20202;-63
2022/09/10 14:42:24;;;;;;;4.43;3.30;;;;;;;;;;5041300;28;20664;-62
2022/09/10 14:44:55;;;;;;;5.27;3.47;;;;;;;;;;5060870;28;20202;-62
2022/09/10 14:47:53;;;;;;;5.27;3.23;;;;;;;;;;5044383;28;20206;-63
2022/09/10 14:50:29;;;;;;;3.87;2.73;;;;;;;;;;5039983;28;20249;-62
2022/09/10 14:53:05;;;;;;;3.17;2.80;;;;;;;;;;5046425;28;20195;-63
2022/09/10 14:55:33;;;;;;;4.20;3.17;;;;;;;;;;5047633;28;20304;-63
2022/09/10 14:58:05;;;;;;;5.10;2.73;;;;;;;;;;5046603;28;20207;-62
2022/09/10 15:00:36;;;;;;;6.40;2.90;;;;;;;;;;5042992;28;20202;-62
2022/09/10 15:03:06;;;;;;;3.27;2.80;;;;;;;;;;5056500;28;20225;-62
2022/09/10 15:05:38;;;;;;;3.60;2.60;;;;;;;;;;5045814;28;20198;-62
2022/09/10 15:08:08;;;;;;;2.67;2.30;;;;;;;;;;5043408;28;20195;-62
2022/09/10 15:10:40;;;;;;;3.20;2.37;;;;;;;;;;5047407;28;20264;-62
2022/09/10 15:13:17;;;;;;;2.53;2.07;;;;;;;;;;5046556;28;20186;-63
2022/09/10 15:16:04;;;;;;;3.50;2.30;;;;;;;;;;5009834;28;20191;-62
2022/09/10 15:18:45;;;;;;;2.87;2.20;;;;;;;;;;5044473;28;20202;-62
2022/09/10 15:21:16;;;;;;;2.63;2.10;;;;;;;;;;5048607;28;20199;-63
2022/09/10 15:23:47;;;;;;;1.97;1.70;;;;;;;;;;5045676;28;20272;-62
2022/09/10 15:26:21;;;;;;;2.93;1.83;;;;;;;;;;5033814;28;20190;-62
2022/09/10 15:28:49;;;;;;;3.03;1.77;;;;;;;;;;5025571;28;20211;-62
2022/09/10 15:31:23;;;;;;;2.40;1.70;;;;;;;;;;5045426;28;20221;-63
2022/09/10 15:34:03;;;;;;;3.07;2.10;;;;;;;;;;5036711;28;20194;-62
2022/09/10 15:36:36;;;;;;;3.33;1.50;;;;;;;;;;5033557;28;20274;-63
2022/09/10 15:39:16;;;;;;;2.57;1.87;;;;;;;;;;5037307;28;20210;-63
2022/09/10 15:42:00;;;;;;;1.70;1.60;;;;;;;;;;5046552;28;20607;-62
2022/09/10 15:44:32;;;;;;;1.83;1.60;;;;;;;;;;5047570;28;20575;-62